Архив погоды в Гунибе

Метеограмма Гуниб
Суббота, 23 Июня
Время местн. Темп Ветер Видим Явления Облачность нижн/средн/верх Атм. давл. Влжн Точка росы ВНГО R Сост. почвы Tg s
Напр Скр Прв ур.ст ур.м изм
15:00 +25° Ю 2 - 50 км - переменная облачность 642 634 -0.9 32% +7.2° 1 км 0 - - -
12:00 +24.2° С 1 - 50 км - переменная облачность 638 635 -0.6 33% +6.9° 1 км - - - -
09:00 +20.3° С,С-В 1 - более 50 км - ясно 643 636 -0.3 49% +9.2° более 2.5 км - - - -
06:00 +15.5° В,Ю-В 1 - 50 км - ясно 643 636 +0.1 63% +8.5° более 2.5 км - Влажная (без луж) - -
03:00 +12.7° С 1 - 10 км - ясно 643 636 -0.2 74% +8.2° более 2.5 км 0 - - -
00:00 +14.1° З,С-З 1 - 10 км - ясно 644 636 -0.3 67% +8.1° более 2.5 км - - - -
Пятница, 22 Июня
Время местн. Темп Ветер Видим Явления Облачность нижн/средн/верх Атм. давл. Влжн Точка росы ВНГО R Сост. почвы Tg s
Напр Скр Прв ур.ст ур.м изм
21:00 +16.7° З,С-З 1 - 10 км - ясно 644 636 +0.8 56% +7.9° более 2.5 км - - - -
18:00 +22.6° Ю-З 1 - более 50 км - переменная облачность 643 633 -0.5 36% +6.8° 1 км 0 - - -
15:00 +24.4° Ю-В 3 - более 50 км - переменная облачность 644 636 -0.9 31% +6.2° 1 км - - - -
12:00 +23.6° В 2 - более 50 км - ясно 644 637 -0.8 35% +7.2° более 2.5 км - - - -
09:00 +19.5° С-В 1 - более 50 км - ясно 645 638 -0.4 50% +8.8° более 2.5 км - - - -
06:00 +15° штиль 0 - 50 км - ясно 646 638 -0.2 55% +6° более 2.5 км - Влажная (без луж) - -
03:00 +11.4° З 1 - 10 км - ясно 646 638 -0.5 70% +6.1° более 2.5 км 0 - - -
00:00 +12.1° З 1 - 10 км - ясно 646 639 -0.2 70% +6.8° более 2.5 км - - - -
Четверг, 21 Июня
Время местн. Темп Ветер Видим Явления Облачность нижн/средн/верх Атм. давл. Влжн Точка росы ВНГО R Сост. почвы Tg s
Напр Скр Прв ур.ст ур.м изм
21:00 +15.4° З,С-З 2 - 10 км - ясно 647 639 +1.1 54% +6.1° более 2.5 км 0 - - -
18:00 +21.4° В,Ю-В 1 - 50 км - ясно 645 638 -0.3 34% +4.9° более 2.5 км - - - -
15:00 +23° Ю-В 1 - 50 км - ясно 646 638 -0.6 26% +2.4° более 2.5 км 0 - - -
12:00 +20.9° З 2 - более 50 км - ясно 646 639 -0.8 31% +3.1° более 2.5 км - - - -
09:00 +17.4° С 2 - 50 км - ясно 647 640 -0.2 60% +9.6° более 2.5 км 0 - - -
06:00 +12.8° штиль 0 - 50 км - ясно 647 640 +0.2 66% +6.6° более 2.5 км - Влажная (без луж) - -
03:00 +8.4° З 1 - 10 км - ясно 647 639 -0.2 83% +5.7° более 2.5 км 0 - - -
00:00 +10.3° З,С-З 1 - 10 км - ясно 647 640 0 85% +7.9° более 2.5 км - - - -
Среда, 20 Июня
Время местн. Темп Ветер Видим Явления Облачность нижн/средн/верх Атм. давл. Влжн Точка росы ВНГО R Сост. почвы Tg s
Напр Скр Прв ур.ст ур.м изм
21:00 +11.8° С-З 1 - 10 км облака рассеиваются {дождь} ясно 647 639 +0.8 88% +9.9° более 2.5 км - - - -
18:00 +13.4° Ю 2 - 20 км небо без изменений {дождь} преимущественно облачно 646 639 +0.5 90% +11.8° 1 км 7 - - -
15:00 +13.5° Ю 1 - 10 км слабый непрерывный дождь облачно 646 638 +0.9 98% +13.2° 1 км - - - -
12:00 +18.6° З 3 - 20 км - преимущественно облачно 645 638 -0.2 64% +11.7° 1 км - - - -